sensor_id;sensor_type;location;lat;lon;timestamp;P1;durP1;ratioP1;P2;durP2;ratioP2
2434;SDS011;1228;51.022;6.764;2023-02-08T00:01:45;11.00;;;10.00;;
2434;SDS011;1228;51.022;6.764;2023-02-08T00:04:10;9.93;;;8.87;;
2434;SDS011;1228;51.022;6.764;2023-02-08T00:06:36;9.23;;;8.63;;
2434;SDS011;1228;51.022;6.764;2023-02-08T00:09:02;10.13;;;9.27;;
2434;SDS011;1228;51.022;6.764;2023-02-08T00:11:27;10.50;;;9.70;;
2434;SDS011;1228;51.022;6.764;2023-02-08T00:13:53;9.20;;;8.63;;
2434;SDS011;1228;51.022;6.764;2023-02-08T00:16:18;9.93;;;9.33;;
2434;SDS011;1228;51.022;6.764;2023-02-08T00:18:44;9.30;;;8.80;;
2434;SDS011;1228;51.022;6.764;2023-02-08T00:21:11;8.83;;;8.33;;
2434;SDS011;1228;51.022;6.764;2023-02-08T00:23:38;9.97;;;9.37;;
2434;SDS011;1228;51.022;6.764;2023-02-08T00:26:04;8.90;;;8.43;;
2434;SDS011;1228;51.022;6.764;2023-02-08T00:28:30;9.10;;;8.43;;
2434;SDS011;1228;51.022;6.764;2023-02-08T00:30:56;9.77;;;9.17;;
2434;SDS011;1228;51.022;6.764;2023-02-08T00:33:22;10.23;;;9.57;;
2434;SDS011;1228;51.022;6.764;2023-02-08T00:35:47;10.63;;;9.83;;
2434;SDS011;1228;51.022;6.764;2023-02-08T00:38:13;11.77;;;10.50;;
2434;SDS011;1228;51.022;6.764;2023-02-08T00:40:38;12.23;;;11.13;;
2434;SDS011;1228;51.022;6.764;2023-02-08T00:43:04;10.23;;;9.63;;
2434;SDS011;1228;51.022;6.764;2023-02-08T00:45:31;12.03;;;10.80;;
2434;SDS011;1228;51.022;6.764;2023-02-08T00:47:56;9.93;;;9.33;;
2434;SDS011;1228;51.022;6.764;2023-02-08T00:50:22;10.83;;;10.13;;
2434;SDS011;1228;51.022;6.764;2023-02-08T00:52:48;9.30;;;8.80;;
2434;SDS011;1228;51.022;6.764;2023-02-08T00:55:14;10.43;;;9.73;;
2434;SDS011;1228;51.022;6.764;2023-02-08T00:57:39;9.87;;;9.37;;
2434;SDS011;1228;51.022;6.764;2023-02-08T01:00:05;9.90;;;9.30;;
2434;SDS011;1228;51.022;6.764;2023-02-08T01:02:32;9.40;;;8.83;;
2434;SDS011;1228;51.022;6.764;2023-02-08T01:04:57;9.27;;;8.87;;
2434;SDS011;1228;51.022;6.764;2023-02-08T01:07:23;9.67;;;9.07;;
2434;SDS011;1228;51.022;6.764;2023-02-08T01:09:48;10.47;;;9.87;;
2434;SDS011;1228;51.022;6.764;2023-02-08T01:12:14;9.50;;;9.00;;
2434;SDS011;1228;51.022;6.764;2023-02-08T01:14:40;10.90;;;10.17;;
2434;SDS011;1228;51.022;6.764;2023-02-08T01:17:06;9.73;;;8.83;;
2434;SDS011;1228;51.022;6.764;2023-02-08T01:19:32;9.33;;;8.90;;
2434;SDS011;1228;51.022;6.764;2023-02-08T01:21:58;8.83;;;8.40;;
2434;SDS011;1228;51.022;6.764;2023-02-08T01:24:24;9.40;;;8.80;;
2434;SDS011;1228;51.022;6.764;2023-02-08T01:26:50;9.93;;;9.13;;
2434;SDS011;1228;51.022;6.764;2023-02-08T01:29:15;10.37;;;9.47;;
2434;SDS011;1228;51.022;6.764;2023-02-08T01:31:41;9.37;;;8.93;;
2434;SDS011;1228;51.022;6.764;2023-02-08T01:34:08;8.60;;;8.10;;
2434;SDS011;1228;51.022;6.764;2023-02-08T01:36:35;9.33;;;8.70;;
2434;SDS011;1228;51.022;6.764;2023-02-08T01:39:02;10.17;;;9.57;;
2434;SDS011;1228;51.022;6.764;2023-02-08T01:41:30;8.77;;;8.10;;
2434;SDS011;1228;51.022;6.764;2023-02-08T01:46:47;9.83;;;9.27;;
2434;SDS011;1228;51.022;6.764;2023-02-08T01:49:17;9.37;;;8.93;;
2434;SDS011;1228;51.022;6.764;2023-02-08T01:51:53;9.70;;;9.10;;
2434;SDS011;1228;51.022;6.764;2023-02-08T01:54:35;9.57;;;8.93;;
2434;SDS011;1228;51.022;6.764;2023-02-08T01:57:05;9.53;;;8.97;;
2434;SDS011;1228;51.022;6.764;2023-02-08T01:59:33;10.70;;;10.00;;
2434;SDS011;1228;51.022;6.764;2023-02-08T02:02:25;10.63;;;9.83;;
2434;SDS011;1228;51.022;6.764;2023-02-08T02:04:51;10.23;;;9.53;;
2434;SDS011;1228;51.022;6.764;2023-02-08T02:07:17;9.60;;;9.10;;
2434;SDS011;1228;51.022;6.764;2023-02-08T02:10:08;10.87;;;9.63;;
2434;SDS011;1228;51.022;6.764;2023-02-08T02:12:34;10.27;;;9.67;;
2434;SDS011;1228;51.022;6.764;2023-02-08T02:15:02;9.00;;;8.50;;
2434;SDS011;1228;51.022;6.764;2023-02-08T02:17:29;13.90;;;10.33;;
2434;SDS011;1228;51.022;6.764;2023-02-08T02:23:03;10.87;;;10.07;;
2434;SDS011;1228;51.022;6.764;2023-02-08T02:33:44;9.43;;;8.87;;
2434;SDS011;1228;51.022;6.764;2023-02-08T02:36:51;11.60;;;10.83;;
2434;SDS011;1228;51.022;6.764;2023-02-08T02:42:09;10.03;;;9.07;;
2434;SDS011;1228;51.022;6.764;2023-02-08T02:45:19;9.50;;;9.03;;
2434;SDS011;1228;51.022;6.764;2023-02-08T02:48:16;9.83;;;9.33;;
2434;SDS011;1228;51.022;6.764;2023-02-08T02:50:44;9.70;;;9.10;;
2434;SDS011;1228;51.022;6.764;2023-02-08T02:56:13;10.00;;;9.40;;
2434;SDS011;1228;51.022;6.764;2023-02-08T02:58:39;9.93;;;9.23;;
2434;SDS011;1228;51.022;6.764;2023-02-08T03:01:07;8.73;;;8.17;;
2434;SDS011;1228;51.022;6.764;2023-02-08T03:03:33;9.77;;;9.07;;
2434;SDS011;1228;51.022;6.764;2023-02-08T03:06:00;9.63;;;9.03;;
2434;SDS011;1228;51.022;6.764;2023-02-08T03:11:21;10.10;;;9.50;;
2434;SDS011;1228;51.022;6.764;2023-02-08T03:22:10;9.60;;;9.10;;
2434;SDS011;1228;51.022;6.764;2023-02-08T03:24:48;9.20;;;8.60;;
2434;SDS011;1228;51.022;6.764;2023-02-08T03:32:56;9.00;;;8.47;;
2434;SDS011;1228;51.022;6.764;2023-02-08T03:35:46;9.33;;;8.73;;
2434;SDS011;1228;51.022;6.764;2023-02-08T03:38:21;9.60;;;9.07;;
2434;SDS011;1228;51.022;6.764;2023-02-08T03:40:57;10.00;;;9.33;;
2434;SDS011;1228;51.022;6.764;2023-02-08T03:43:27;11.07;;;10.00;;
2434;SDS011;1228;51.022;6.764;2023-02-08T03:46:10;11.50;;;10.00;;
2434;SDS011;1228;51.022;6.764;2023-02-08T03:48:42;9.97;;;9.07;;
2434;SDS011;1228;51.022;6.764;2023-02-08T03:51:13;10.07;;;9.33;;
2434;SDS011;1228;51.022;6.764;2023-02-08T03:53:41;9.43;;;8.87;;
2434;SDS011;1228;51.022;6.764;2023-02-08T03:56:14;11.27;;;9.90;;
2434;SDS011;1228;51.022;6.764;2023-02-08T03:58:54;9.57;;;8.93;;
2434;SDS011;1228;51.022;6.764;2023-02-08T04:01:25;9.93;;;9.07;;
2434;SDS011;1228;51.022;6.764;2023-02-08T04:03:54;11.13;;;10.23;;
2434;SDS011;1228;51.022;6.764;2023-02-08T04:06:21;10.23;;;9.23;;
2434;SDS011;1228;51.022;6.764;2023-02-08T04:08:47;9.83;;;9.23;;
2434;SDS011;1228;51.022;6.764;2023-02-08T04:11:14;11.03;;;10.13;;
2434;SDS011;1228;51.022;6.764;2023-02-08T04:13:40;9.60;;;9.10;;
2434;SDS011;1228;51.022;6.764;2023-02-08T04:16:06;10.33;;;9.53;;
2434;SDS011;1228;51.022;6.764;2023-02-08T04:18:33;10.37;;;9.47;;
2434;SDS011;1228;51.022;6.764;2023-02-08T04:20:58;11.10;;;10.13;;
2434;SDS011;1228;51.022;6.764;2023-02-08T04:23:24;10.57;;;9.83;;
2434;SDS011;1228;51.022;6.764;2023-02-08T04:25:49;10.03;;;9.40;;
2434;SDS011;1228;51.022;6.764;2023-02-08T04:28:15;9.57;;;8.97;;
2434;SDS011;1228;51.022;6.764;2023-02-08T04:30:40;10.37;;;9.87;;
2434;SDS011;1228;51.022;6.764;2023-02-08T04:33:06;9.47;;;8.87;;
2434;SDS011;1228;51.022;6.764;2023-02-08T04:35:32;10.00;;;9.20;;
2434;SDS011;1228;51.022;6.764;2023-02-08T04:37:58;8.87;;;8.47;;
2434;SDS011;1228;51.022;6.764;2023-02-08T04:40:23;9.53;;;8.93;;
2434;SDS011;1228;51.022;6.764;2023-02-08T04:42:49;10.00;;;9.10;;
2434;SDS011;1228;51.022;6.764;2023-02-08T04:45:15;9.83;;;8.80;;
2434;SDS011;1228;51.022;6.764;2023-02-08T04:47:40;9.90;;;9.03;;
2434;SDS011;1228;51.022;6.764;2023-02-08T04:50:06;10.33;;;9.67;;
2434;SDS011;1228;51.022;6.764;2023-02-08T04:52:31;9.97;;;9.03;;
2434;SDS011;1228;51.022;6.764;2023-02-08T04:54:57;10.47;;;9.30;;
2434;SDS011;1228;51.022;6.764;2023-02-08T04:57:23;9.50;;;8.90;;
2434;SDS011;1228;51.022;6.764;2023-02-08T04:59:48;9.67;;;9.07;;
2434;SDS011;1228;51.022;6.764;2023-02-08T05:02:14;9.17;;;8.57;;
2434;SDS011;1228;51.022;6.764;2023-02-08T05:04:39;9.30;;;8.63;;
2434;SDS011;1228;51.022;6.764;2023-02-08T05:07:05;8.87;;;8.37;;
2434;SDS011;1228;51.022;6.764;2023-02-08T05:09:30;9.60;;;8.97;;
2434;SDS011;1228;51.022;6.764;2023-02-08T05:11:56;10.50;;;9.87;;
2434;SDS011;1228;51.022;6.764;2023-02-08T05:14:22;9.63;;;9.13;;
2434;SDS011;1228;51.022;6.764;2023-02-08T05:16:47;12.70;;;9.40;;
2434;SDS011;1228;51.022;6.764;2023-02-08T05:19:13;8.90;;;8.43;;
2434;SDS011;1228;51.022;6.764;2023-02-08T05:21:38;11.63;;;10.80;;
2434;SDS011;1228;51.022;6.764;2023-02-08T05:24:04;11.60;;;10.63;;
2434;SDS011;1228;51.022;6.764;2023-02-08T05:26:31;11.73;;;10.97;;
2434;SDS011;1228;51.022;6.764;2023-02-08T05:28:57;10.17;;;9.50;;
2434;SDS011;1228;51.022;6.764;2023-02-08T05:31:23;9.73;;;9.13;;
2434;SDS011;1228;51.022;6.764;2023-02-08T05:33:50;11.33;;;10.47;;
2434;SDS011;1228;51.022;6.764;2023-02-08T05:36:16;10.70;;;9.73;;
2434;SDS011;1228;51.022;6.764;2023-02-08T05:38:43;10.90;;;9.90;;
2434;SDS011;1228;51.022;6.764;2023-02-08T05:41:08;9.90;;;9.10;;
2434;SDS011;1228;51.022;6.764;2023-02-08T05:43:34;11.07;;;10.37;;
2434;SDS011;1228;51.022;6.764;2023-02-08T05:46:00;9.83;;;9.23;;
2434;SDS011;1228;51.022;6.764;2023-02-08T05:48:26;9.83;;;9.10;;
2434;SDS011;1228;51.022;6.764;2023-02-08T05:50:52;9.67;;;8.90;;
2434;SDS011;1228;51.022;6.764;2023-02-08T05:53:18;9.10;;;8.70;;
2434;SDS011;1228;51.022;6.764;2023-02-08T05:55:44;10.70;;;9.90;;
2434;SDS011;1228;51.022;6.764;2023-02-08T05:58:10;9.73;;;9.07;;
2434;SDS011;1228;51.022;6.764;2023-02-08T06:00:36;17.40;;;10.37;;
2434;SDS011;1228;51.022;6.764;2023-02-08T06:03:02;10.40;;;9.53;;
2434;SDS011;1228;51.022;6.764;2023-02-08T06:05:28;10.17;;;9.57;;
2434;SDS011;1228;51.022;6.764;2023-02-08T06:07:53;9.87;;;9.33;;
2434;SDS011;1228;51.022;6.764;2023-02-08T06:10:19;10.60;;;9.57;;
2434;SDS011;1228;51.022;6.764;2023-02-08T06:12:45;10.07;;;9.30;;
2434;SDS011;1228;51.022;6.764;2023-02-08T06:15:10;9.67;;;8.87;;
2434;SDS011;1228;51.022;6.764;2023-02-08T06:17:36;9.50;;;9.00;;
2434;SDS011;1228;51.022;6.764;2023-02-08T06:20:02;9.73;;;9.23;;
2434;SDS011;1228;51.022;6.764;2023-02-08T06:22:28;9.73;;;9.20;;
2434;SDS011;1228;51.022;6.764;2023-02-08T06:24:54;9.33;;;8.77;;
2434;SDS011;1228;51.022;6.764;2023-02-08T06:27:19;10.47;;;9.87;;
2434;SDS011;1228;51.022;6.764;2023-02-08T06:29:45;10.87;;;9.97;;
2434;SDS011;1228;51.022;6.764;2023-02-08T06:32:10;9.60;;;9.07;;
2434;SDS011;1228;51.022;6.764;2023-02-08T06:34:36;10.90;;;10.07;;
2434;SDS011;1228;51.022;6.764;2023-02-08T06:37:02;9.90;;;9.20;;
2434;SDS011;1228;51.022;6.764;2023-02-08T06:39:29;10.83;;;9.87;;
2434;SDS011;1228;51.022;6.764;2023-02-08T06:41:55;11.90;;;11.20;;
2434;SDS011;1228;51.022;6.764;2023-02-08T06:44:21;9.77;;;9.17;;
2434;SDS011;1228;51.022;6.764;2023-02-08T06:46:46;15.40;;;9.97;;
2434;SDS011;1228;51.022;6.764;2023-02-08T06:49:12;9.53;;;8.93;;
2434;SDS011;1228;51.022;6.764;2023-02-08T06:51:38;9.83;;;9.23;;
2434;SDS011;1228;51.022;6.764;2023-02-08T06:54:03;9.73;;;9.23;;
2434;SDS011;1228;51.022;6.764;2023-02-08T06:56:29;10.70;;;10.07;;
2434;SDS011;1228;51.022;6.764;2023-02-08T06:58:55;10.53;;;9.70;;
2434;SDS011;1228;51.022;6.764;2023-02-08T07:01:21;11.33;;;10.47;;
2434;SDS011;1228;51.022;6.764;2023-02-08T07:03:47;10.73;;;10.00;;
2434;SDS011;1228;51.022;6.764;2023-02-08T07:06:16;9.90;;;9.30;;
2434;SDS011;1228;51.022;6.764;2023-02-08T07:08:43;9.50;;;9.00;;
2434;SDS011;1228;51.022;6.764;2023-02-08T07:11:10;11.73;;;10.73;;
2434;SDS011;1228;51.022;6.764;2023-02-08T07:13:39;9.53;;;8.97;;
2434;SDS011;1228;51.022;6.764;2023-02-08T07:16:05;10.87;;;10.17;;
2434;SDS011;1228;51.022;6.764;2023-02-08T07:18:32;9.87;;;9.03;;
2434;SDS011;1228;51.022;6.764;2023-02-08T07:20:58;10.17;;;9.43;;
2434;SDS011;1228;51.022;6.764;2023-02-08T07:23:23;10.60;;;9.80;;
2434;SDS011;1228;51.022;6.764;2023-02-08T07:25:56;10.07;;;9.47;;
2434;SDS011;1228;51.022;6.764;2023-02-08T07:28:22;12.00;;;10.90;;
2434;SDS011;1228;51.022;6.764;2023-02-08T07:30:48;9.83;;;9.23;;
2434;SDS011;1228;51.022;6.764;2023-02-08T07:33:13;11.13;;;10.13;;
2434;SDS011;1228;51.022;6.764;2023-02-08T07:35:39;11.47;;;10.63;;
2434;SDS011;1228;51.022;6.764;2023-02-08T07:38:04;11.87;;;10.90;;
2434;SDS011;1228;51.022;6.764;2023-02-08T07:40:30;10.50;;;9.73;;
2434;SDS011;1228;51.022;6.764;2023-02-08T07:42:56;12.07;;;11.23;;
2434;SDS011;1228;51.022;6.764;2023-02-08T07:45:21;10.07;;;9.67;;
2434;SDS011;1228;51.022;6.764;2023-02-08T07:47:47;10.80;;;9.67;;
2434;SDS011;1228;51.022;6.764;2023-02-08T07:50:14;9.87;;;9.27;;
2434;SDS011;1228;51.022;6.764;2023-02-08T07:52:40;10.00;;;9.13;;
2434;SDS011;1228;51.022;6.764;2023-02-08T07:55:08;12.00;;;11.13;;
2434;SDS011;1228;51.022;6.764;2023-02-08T07:57:35;11.63;;;10.60;;
2434;SDS011;1228;51.022;6.764;2023-02-08T08:00:01;9.17;;;8.57;;
2434;SDS011;1228;51.022;6.764;2023-02-08T08:02:27;10.90;;;10.03;;
2434;SDS011;1228;51.022;6.764;2023-02-08T08:04:53;11.37;;;10.47;;
2434;SDS011;1228;51.022;6.764;2023-02-08T08:07:19;12.13;;;11.03;;
2434;SDS011;1228;51.022;6.764;2023-02-08T08:09:44;12.73;;;11.67;;
2434;SDS011;1228;51.022;6.764;2023-02-08T08:12:10;11.67;;;10.63;;
2434;SDS011;1228;51.022;6.764;2023-02-08T08:14:35;9.57;;;8.80;;
2434;SDS011;1228;51.022;6.764;2023-02-08T08:17:01;10.23;;;9.53;;
2434;SDS011;1228;51.022;6.764;2023-02-08T08:19:26;9.97;;;9.17;;
2434;SDS011;1228;51.022;6.764;2023-02-08T08:21:52;10.40;;;9.33;;
2434;SDS011;1228;51.022;6.764;2023-02-08T08:24:18;9.17;;;8.40;;
2434;SDS011;1228;51.022;6.764;2023-02-08T08:26:43;11.03;;;10.23;;
2434;SDS011;1228;51.022;6.764;2023-02-08T08:29:09;11.87;;;10.70;;
2434;SDS011;1228;51.022;6.764;2023-02-08T08:31:34;11.07;;;9.63;;
2434;SDS011;1228;51.022;6.764;2023-02-08T08:34:02;8.70;;;8.00;;
2434;SDS011;1228;51.022;6.764;2023-02-08T08:36:28;8.70;;;8.10;;
2434;SDS011;1228;51.022;6.764;2023-02-08T08:38:54;14.17;;;7.83;;
2434;SDS011;1228;51.022;6.764;2023-02-08T08:41:20;10.17;;;8.13;;
2434;SDS011;1228;51.022;6.764;2023-02-08T08:43:47;8.87;;;8.07;;
2434;SDS011;1228;51.022;6.764;2023-02-08T08:46:13;8.60;;;7.37;;
2434;SDS011;1228;51.022;6.764;2023-02-08T08:48:40;7.70;;;7.13;;
2434;SDS011;1228;51.022;6.764;2023-02-08T08:51:06;8.20;;;7.60;;
2434;SDS011;1228;51.022;6.764;2023-02-08T08:53:32;9.00;;;8.30;;
2434;SDS011;1228;51.022;6.764;2023-02-08T08:55:58;9.07;;;8.27;;
2434;SDS011;1228;51.022;6.764;2023-02-08T08:58:23;12.00;;;8.33;;
2434;SDS011;1228;51.022;6.764;2023-02-08T09:00:49;8.87;;;8.00;;
2434;SDS011;1228;51.022;6.764;2023-02-08T09:03:14;10.47;;;8.30;;
2434;SDS011;1228;51.022;6.764;2023-02-08T09:05:40;9.17;;;8.37;;
2434;SDS011;1228;51.022;6.764;2023-02-08T09:08:06;9.37;;;8.13;;
2434;SDS011;1228;51.022;6.764;2023-02-08T09:10:32;8.60;;;7.80;;
2434;SDS011;1228;51.022;6.764;2023-02-08T09:12:57;8.30;;;7.60;;
2434;SDS011;1228;51.022;6.764;2023-02-08T09:15:23;7.77;;;7.17;;
2434;SDS011;1228;51.022;6.764;2023-02-08T09:17:49;7.87;;;7.27;;
2434;SDS011;1228;51.022;6.764;2023-02-08T09:20:14;8.27;;;7.57;;
2434;SDS011;1228;51.022;6.764;2023-02-08T09:22:40;7.83;;;7.10;;
2434;SDS011;1228;51.022;6.764;2023-02-08T09:25:06;7.53;;;6.93;;
2434;SDS011;1228;51.022;6.764;2023-02-08T09:27:32;12.27;;;7.17;;
2434;SDS011;1228;51.022;6.764;2023-02-08T09:29:58;7.43;;;6.93;;
2434;SDS011;1228;51.022;6.764;2023-02-08T09:32:24;7.13;;;6.63;;
2434;SDS011;1228;51.022;6.764;2023-02-08T09:34:49;7.50;;;6.80;;
2434;SDS011;1228;51.022;6.764;2023-02-08T09:37:15;7.63;;;7.07;;
2434;SDS011;1228;51.022;6.764;2023-02-08T09:39:42;12.07;;;6.97;;
2434;SDS011;1228;51.022;6.764;2023-02-08T09:42:12;6.77;;;6.30;;
2434;SDS011;1228;51.022;6.764;2023-02-08T09:47:46;7.83;;;7.13;;
2434;SDS011;1228;51.022;6.764;2023-02-08T09:50:20;10.43;;;8.73;;
2434;SDS011;1228;51.022;6.764;2023-02-08T09:52:58;8.37;;;7.47;;
2434;SDS011;1228;51.022;6.764;2023-02-08T09:55:33;8.00;;;7.20;;
2434;SDS011;1228;51.022;6.764;2023-02-08T09:58:06;6.73;;;6.13;;
2434;SDS011;1228;51.022;6.764;2023-02-08T10:00:40;6.80;;;6.13;;
2434;SDS011;1228;51.022;6.764;2023-02-08T10:03:18;7.83;;;7.33;;
2434;SDS011;1228;51.022;6.764;2023-02-08T10:06:07;7.37;;;6.83;;
2434;SDS011;1228;51.022;6.764;2023-02-08T10:08:36;7.97;;;7.13;;
2434;SDS011;1228;51.022;6.764;2023-02-08T10:17:03;7.27;;;6.67;;
2434;SDS011;1228;51.022;6.764;2023-02-08T10:19:45;7.13;;;6.57;;
2434;SDS011;1228;51.022;6.764;2023-02-08T10:25:30;6.47;;;5.97;;
2434;SDS011;1228;51.022;6.764;2023-02-08T10:33:23;6.10;;;5.60;;
2434;SDS011;1228;51.022;6.764;2023-02-08T10:35:56;6.17;;;5.57;;
2434;SDS011;1228;51.022;6.764;2023-02-08T10:38:26;6.50;;;5.97;;
2434;SDS011;1228;51.022;6.764;2023-02-08T10:40:59;6.77;;;6.17;;
2434;SDS011;1228;51.022;6.764;2023-02-08T10:48:55;6.87;;;6.27;;
2434;SDS011;1228;51.022;6.764;2023-02-08T10:51:32;5.93;;;5.33;;
2434;SDS011;1228;51.022;6.764;2023-02-08T10:53:58;6.70;;;6.13;;
2434;SDS011;1228;51.022;6.764;2023-02-08T10:59:08;6.33;;;5.83;;
2434;SDS011;1228;51.022;6.764;2023-02-08T11:01:53;6.30;;;5.80;;
2434;SDS011;1228;51.022;6.764;2023-02-08T11:04:20;7.07;;;6.20;;
2434;SDS011;1228;51.022;6.764;2023-02-08T11:06:46;8.37;;;5.63;;
2434;SDS011;1228;51.022;6.764;2023-02-08T11:11:53;6.50;;;5.90;;
2434;SDS011;1228;51.022;6.764;2023-02-08T11:14:33;6.13;;;5.53;;
2434;SDS011;1228;51.022;6.764;2023-02-08T11:17:03;5.97;;;5.47;;
2434;SDS011;1228;51.022;6.764;2023-02-08T11:19:46;6.67;;;6.10;;
2434;SDS011;1228;51.022;6.764;2023-02-08T11:22:15;11.53;;;6.00;;
2434;SDS011;1228;51.022;6.764;2023-02-08T11:24:42;7.27;;;6.53;;
2434;SDS011;1228;51.022;6.764;2023-02-08T11:27:18;6.37;;;5.83;;
2434;SDS011;1228;51.022;6.764;2023-02-08T11:30:17;6.60;;;6.17;;
2434;SDS011;1228;51.022;6.764;2023-02-08T11:32:48;6.40;;;5.73;;
2434;SDS011;1228;51.022;6.764;2023-02-08T11:35:42;6.57;;;5.70;;
2434;SDS011;1228;51.022;6.764;2023-02-08T11:38:26;6.23;;;5.63;;
2434;SDS011;1228;51.022;6.764;2023-02-08T11:40:56;6.40;;;5.80;;
2434;SDS011;1228;51.022;6.764;2023-02-08T11:45:51;6.73;;;6.07;;
2434;SDS011;1228;51.022;6.764;2023-02-08T11:50:53;6.87;;;6.27;;
2434;SDS011;1228;51.022;6.764;2023-02-08T11:53:32;7.27;;;6.63;;
2434;SDS011;1228;51.022;6.764;2023-02-08T11:56:04;7.70;;;6.90;;
2434;SDS011;1228;51.022;6.764;2023-02-08T11:58:30;6.10;;;5.67;;
2434;SDS011;1228;51.022;6.764;2023-02-08T12:00:59;6.97;;;6.37;;
2434;SDS011;1228;51.022;6.764;2023-02-08T12:03:31;7.83;;;6.83;;
2434;SDS011;1228;51.022;6.764;2023-02-08T12:34:00;6.43;;;5.93;;
2434;SDS011;1228;51.022;6.764;2023-02-08T12:52:02;5.33;;;4.93;;
2434;SDS011;1228;51.022;6.764;2023-02-08T12:54:49;5.80;;;5.40;;
2434;SDS011;1228;51.022;6.764;2023-02-08T12:57:19;6.00;;;5.50;;
2434;SDS011;1228;51.022;6.764;2023-02-08T13:02:28;5.70;;;5.20;;
2434;SDS011;1228;51.022;6.764;2023-02-08T13:05:19;5.33;;;4.93;;
2434;SDS011;1228;51.022;6.764;2023-02-08T13:07:47;4.83;;;4.37;;
2434;SDS011;1228;51.022;6.764;2023-02-08T13:10:21;4.90;;;4.60;;
2434;SDS011;1228;51.022;6.764;2023-02-08T13:12:51;5.40;;;5.00;;
2434;SDS011;1228;51.022;6.764;2023-02-08T13:17:55;5.30;;;4.90;;
2434;SDS011;1228;51.022;6.764;2023-02-08T13:22:52;6.17;;;4.93;;
2434;SDS011;1228;51.022;6.764;2023-02-08T13:25:29;5.70;;;5.30;;
2434;SDS011;1228;51.022;6.764;2023-02-08T13:28:01;5.20;;;4.70;;
2434;SDS011;1228;51.022;6.764;2023-02-08T13:30:28;5.20;;;4.87;;
2434;SDS011;1228;51.022;6.764;2023-02-08T13:32:55;4.50;;;4.30;;
2434;SDS011;1228;51.022;6.764;2023-02-08T13:35:25;5.03;;;4.70;;
2434;SDS011;1228;51.022;6.764;2023-02-08T13:38:05;5.40;;;5.00;;
2434;SDS011;1228;51.022;6.764;2023-02-08T13:40:42;5.60;;;5.10;;
2434;SDS011;1228;51.022;6.764;2023-02-08T13:43:24;5.40;;;5.00;;
2434;SDS011;1228;51.022;6.764;2023-02-08T13:46:01;5.10;;;4.80;;
2434;SDS011;1228;51.022;6.764;2023-02-08T13:48:28;5.50;;;4.97;;
2434;SDS011;1228;51.022;6.764;2023-02-08T13:56:39;5.27;;;4.83;;
2434;SDS011;1228;51.022;6.764;2023-02-08T14:04:40;4.50;;;4.30;;
2434;SDS011;1228;51.022;6.764;2023-02-08T14:17:46;5.10;;;4.80;;
2434;SDS011;1228;51.022;6.764;2023-02-08T14:20:24;5.70;;;5.40;;
2434;SDS011;1228;51.022;6.764;2023-02-08T14:23:00;5.37;;;4.97;;
2434;SDS011;1228;51.022;6.764;2023-02-08T14:25:39;5.17;;;4.80;;
2434;SDS011;1228;51.022;6.764;2023-02-08T14:28:15;5.30;;;4.90;;
2434;SDS011;1228;51.022;6.764;2023-02-08T14:30:49;4.87;;;4.60;;
2434;SDS011;1228;51.022;6.764;2023-02-08T14:33:18;5.27;;;4.87;;
2434;SDS011;1228;51.022;6.764;2023-02-08T14:35:53;5.20;;;4.90;;
2434;SDS011;1228;51.022;6.764;2023-02-08T14:38:32;4.97;;;4.53;;
2434;SDS011;1228;51.022;6.764;2023-02-08T14:41:01;5.77;;;5.30;;
2434;SDS011;1228;51.022;6.764;2023-02-08T14:46:44;5.03;;;4.53;;
2434;SDS011;1228;51.022;6.764;2023-02-08T14:49:08;5.67;;;5.10;;
2434;SDS011;1228;51.022;6.764;2023-02-08T14:51:36;5.50;;;5.00;;
2434;SDS011;1228;51.022;6.764;2023-02-08T14:54:13;5.50;;;5.00;;
2434;SDS011;1228;51.022;6.764;2023-02-08T14:56:53;5.70;;;5.30;;
2434;SDS011;1228;51.022;6.764;2023-02-08T14:59:23;6.00;;;5.60;;
2434;SDS011;1228;51.022;6.764;2023-02-08T15:01:58;5.63;;;5.33;;
2434;SDS011;1228;51.022;6.764;2023-02-08T15:04:27;5.67;;;5.37;;
2434;SDS011;1228;51.022;6.764;2023-02-08T15:09:42;5.83;;;5.53;;
2434;SDS011;1228;51.022;6.764;2023-02-08T15:15:32;5.43;;;5.13;;
2434;SDS011;1228;51.022;6.764;2023-02-08T15:18:18;6.00;;;5.63;;
2434;SDS011;1228;51.022;6.764;2023-02-08T15:23:22;5.97;;;5.57;;
2434;SDS011;1228;51.022;6.764;2023-02-08T15:25:55;5.20;;;4.90;;
2434;SDS011;1228;51.022;6.764;2023-02-08T15:28:26;5.63;;;5.20;;
2434;SDS011;1228;51.022;6.764;2023-02-08T15:30:54;5.70;;;5.37;;
2434;SDS011;1228;51.022;6.764;2023-02-08T15:33:26;5.63;;;5.23;;
2434;SDS011;1228;51.022;6.764;2023-02-08T15:35:59;5.00;;;4.80;;
2434;SDS011;1228;51.022;6.764;2023-02-08T15:38:27;10.10;;;9.50;;
2434;SDS011;1228;51.022;6.764;2023-02-08T15:44:11;5.80;;;5.40;;
2434;SDS011;1228;51.022;6.764;2023-02-08T15:46:46;5.07;;;4.77;;
2434;SDS011;1228;51.022;6.764;2023-02-08T15:49:15;6.07;;;5.47;;
2434;SDS011;1228;51.022;6.764;2023-02-08T15:51:43;5.80;;;5.50;;
2434;SDS011;1228;51.022;6.764;2023-02-08T15:54:13;6.23;;;5.93;;
2434;SDS011;1228;51.022;6.764;2023-02-08T15:57:02;6.07;;;5.73;;
2434;SDS011;1228;51.022;6.764;2023-02-08T15:59:32;5.67;;;5.20;;
2434;SDS011;1228;51.022;6.764;2023-02-08T16:02:23;5.10;;;4.90;;
2434;SDS011;1228;51.022;6.764;2023-02-08T16:04:55;6.30;;;5.43;;
2434;SDS011;1228;51.022;6.764;2023-02-08T16:09:57;5.80;;;5.40;;
2434;SDS011;1228;51.022;6.764;2023-02-08T16:12:23;5.80;;;5.40;;
2434;SDS011;1228;51.022;6.764;2023-02-08T16:14:52;5.73;;;5.50;;
2434;SDS011;1228;51.022;6.764;2023-02-08T16:20:29;5.63;;;5.40;;
2434;SDS011;1228;51.022;6.764;2023-02-08T16:27:57;6.03;;;5.67;;
2434;SDS011;1228;51.022;6.764;2023-02-08T16:30:23;6.27;;;5.83;;
2434;SDS011;1228;51.022;6.764;2023-02-08T16:32:49;5.57;;;5.33;;
2434;SDS011;1228;51.022;6.764;2023-02-08T16:35:27;5.20;;;5.00;;
2434;SDS011;1228;51.022;6.764;2023-02-08T16:37:54;5.87;;;5.53;;
2434;SDS011;1228;51.022;6.764;2023-02-08T16:46:11;5.97;;;5.57;;
2434;SDS011;1228;51.022;6.764;2023-02-08T16:48:40;6.23;;;5.70;;
2434;SDS011;1228;51.022;6.764;2023-02-08T16:51:15;6.00;;;5.63;;
2434;SDS011;1228;51.022;6.764;2023-02-08T16:53:46;6.43;;;5.93;;
2434;SDS011;1228;51.022;6.764;2023-02-08T16:56:13;5.93;;;5.63;;
2434;SDS011;1228;51.022;6.764;2023-02-08T16:58:38;5.60;;;5.40;;
2434;SDS011;1228;51.022;6.764;2023-02-08T17:01:04;6.03;;;5.63;;
2434;SDS011;1228;51.022;6.764;2023-02-08T17:03:30;6.07;;;5.67;;
2434;SDS011;1228;51.022;6.764;2023-02-08T17:05:56;6.33;;;5.93;;
2434;SDS011;1228;51.022;6.764;2023-02-08T17:08:24;6.97;;;6.57;;
2434;SDS011;1228;51.022;6.764;2023-02-08T17:10:50;6.40;;;6.10;;
2434;SDS011;1228;51.022;6.764;2023-02-08T17:13:22;6.77;;;6.47;;
2434;SDS011;1228;51.022;6.764;2023-02-08T17:15:50;6.57;;;6.27;;
2434;SDS011;1228;51.022;6.764;2023-02-08T17:18:16;7.10;;;6.70;;
2434;SDS011;1228;51.022;6.764;2023-02-08T17:20:42;7.93;;;7.43;;
2434;SDS011;1228;51.022;6.764;2023-02-08T17:23:08;9.93;;;7.73;;
2434;SDS011;1228;51.022;6.764;2023-02-08T17:25:34;7.90;;;7.40;;
2434;SDS011;1228;51.022;6.764;2023-02-08T17:28:07;7.80;;;6.73;;
2434;SDS011;1228;51.022;6.764;2023-02-08T17:30:39;8.13;;;7.63;;
2434;SDS011;1228;51.022;6.764;2023-02-08T17:33:06;7.50;;;7.10;;
2434;SDS011;1228;51.022;6.764;2023-02-08T17:35:33;8.40;;;7.80;;
2434;SDS011;1228;51.022;6.764;2023-02-08T17:38:01;8.13;;;7.63;;
2434;SDS011;1228;51.022;6.764;2023-02-08T17:40:29;8.40;;;7.90;;
2434;SDS011;1228;51.022;6.764;2023-02-08T17:42:56;7.13;;;6.73;;
2434;SDS011;1228;51.022;6.764;2023-02-08T17:45:23;7.40;;;7.00;;
2434;SDS011;1228;51.022;6.764;2023-02-08T17:47:48;7.07;;;6.60;;
2434;SDS011;1228;51.022;6.764;2023-02-08T17:50:15;8.20;;;7.63;;
2434;SDS011;1228;51.022;6.764;2023-02-08T17:52:42;7.50;;;7.10;;
2434;SDS011;1228;51.022;6.764;2023-02-08T17:55:10;8.50;;;6.70;;
2434;SDS011;1228;51.022;6.764;2023-02-08T17:57:37;7.07;;;6.57;;
2434;SDS011;1228;51.022;6.764;2023-02-08T18:00:05;8.90;;;7.83;;
2434;SDS011;1228;51.022;6.764;2023-02-08T18:02:35;6.73;;;6.43;;
2434;SDS011;1228;51.022;6.764;2023-02-08T18:05:00;6.87;;;6.47;;
2434;SDS011;1228;51.022;6.764;2023-02-08T18:07:26;7.80;;;7.20;;
2434;SDS011;1228;51.022;6.764;2023-02-08T18:09:51;7.40;;;6.90;;
2434;SDS011;1228;51.022;6.764;2023-02-08T18:12:17;7.50;;;7.10;;
2434;SDS011;1228;51.022;6.764;2023-02-08T18:14:43;7.93;;;7.43;;
2434;SDS011;1228;51.022;6.764;2023-02-08T18:17:09;7.07;;;6.67;;